Station: Esperance Airport  

  Atmospheric Gas Attenuation - ITU Rec 676-11   ----------------- dB/100km -----------------
Date Time Temp RH % AH g/m3 Dew Point Wind Direction Speed kph Gust kph Barometer mB Rainfall Since 9am 24GHz 47GHz 76GHz 122GHz 134GHz 241GHz
08/05 09:30 15.7 64 8.56 8.9 13 22 1036.8 0 19.4 26.2 39.7 104.0 97.4 335.0
08/05 09:20 15 62 7.95 7.8 17 20 1036.8 0 18.1 25.4 37.7 98.4 90.3 310.1
08/05 09:10 14.6 66 8.26 8.3 19 22 1036.9 0 18.8 26.0 39.1 102.2 94.8 325.8
08/05 09:00 14.5 69 8.58 8.9 13 22 1036.9 0 19.5 26.5 40.4 105.8 99.2 341.0
08/05 08:50 13.8 72 8.58 8.8 13 19 1036.9 0 19.5 26.8 40.8 106.7 100.1 344.1
08/05 08:40 13.5 71 8.31 8.4 15 20 1036.9 0 19.0 26.4 39.8 104.2 96.8 332.7
08/05 08:30 13.2 73 8.38 8.5 11 17 1036.9 0 19.1 26.6 40.3 105.3 98.2 337.3
08/05 08:20 12.3 77 8.36 8.4 11 13 1036.9 0 19.1 26.8 40.6 106.3 99.0 340.2
08/05 08:10 11.6 81 8.42 8.5 9 11 1037 0 19.3 27.2 41.3 108.0 100.8 346.2
08/05 08:00 11.2 80 8.11 7.9 13 19 1036.9 0 18.6 26.8 40.2 105.1 97.0 333.0
08/05 07:50 10.9 80 7.96 7.6 13 17 1036.7 0 18.3 26.6 39.7 103.8 95.3 327.0
08/05 07:40 10.9 81 8.06 7.8 9 11 1036.5 0 18.6 26.7 40.1 104.9 96.7 331.8
08/05 07:30 10.6 81 7.91 7.5 11 15 1036.5 0 18.2 26.6 39.6 103.6 95.0 325.8
08/05 07:20 10.3 81 7.76 7.2 13 15 1036.4 0 17.9 26.4 39.1 102.3 93.3 319.9
08/05 07:10 10.6 79 7.71 7.1 11 15 1036.2 0 17.8 26.2 38.8 101.4 92.2 316.2
08/05 07:00 10.5 79 7.66 7 13 20 1036.1 0 17.7 26.2 38.6 100.9 91.7 314.2
08/05 06:50 10.2 80 7.61 6.9 15 17 1036 0 17.6 26.2 38.6 100.7 91.3 313.0
08/05 06:40 10.2 80 7.61 6.9 15 19 1035.9 0 17.6 26.2 38.6 100.7 91.3 313.0
08/05 06:30 10.3 79 7.57 6.8 15 20 1035.7 0 17.5 26.1 38.3 100.1 90.7 310.6
08/05 06:20 10.4 79 7.62 6.9 15 19 1035.7 0 17.6 26.1 38.5 100.6 91.2 312.6
08/05 06:10 10.2 81 7.71 7.1 15 19 1035.6 0 17.8 26.3 39.0 101.8 92.7 317.7
08/05 06:00 9.9 83 7.75 7.2 13 19 1035.5 0 17.9 26.5 39.3 102.6 93.6 320.8
08/05 05:50 9.7 84 7.75 7.1 15 19 1035.4 0 17.9 26.5 39.4 102.9 93.8 321.6
08/05 05:40 10 83 7.8 7.3 13 15 1035.3 0 18.0 26.5 39.4 103.0 94.1 322.7
08/05 05:30 10.4 82 7.9 7.5 15 20 1035.2 0 18.2 26.6 39.6 103.6 95.0 325.9
08/05 05:20 10.1 82 7.76 7.2 13 17 1035.2 0 17.9 26.4 39.2 102.5 93.4 320.4
08/05 05:10 10.2 83 7.9 7.4 13 15 1035.1 0 18.2 26.6 39.7 103.9 95.2 326.7
08/05 05:00 10.1 82 7.76 7.2 13 22 1035 0 17.9 26.4 39.2 102.4 93.4 320.3
08/05 04:50 10.3 82 7.85 7.4 13 17 1034.9 0 18.1 26.5 39.5 103.2 94.4 323.8
08/05 04:40 10.2 82 7.81 7.3 13 17 1034.8 0 18.1 26.5 39.3 102.8 94.0 322.3
08/05 04:30 10.2 82 7.81 7.3 13 19 1034.8 0 18.1 26.5 39.3 102.8 94.0 322.3
08/05 04:20 10.4 81 7.81 7.3 11 15 1034.8 0 18.0 26.4 39.2 102.6 93.7 321.4
08/05 04:10 10.3 82 7.85 7.4 13 13 1034.8 0 18.1 26.5 39.4 103.1 94.4 323.8
08/05 04:00 10.2 82 7.81 7.3 11 17 1034.8 0 18.1 26.5 39.3 102.8 94.0 322.3
08/05 03:50 10.2 83 7.9 7.4 9 13 1034.8 0 18.2 26.6 39.7 103.8 95.2 326.6
08/05 03:40 10.2 83 7.9 7.4 13 15 1034.7 0 18.2 26.6 39.7 103.8 95.2 326.6
08/05 03:30 10.1 84 7.95 7.5 11 15 1034.7 0 18.4 26.7 40.0 104.5 96.0 329.4
08/05 03:20 10.1 84 7.95 7.5 11 15 1034.7 0 18.4 26.7 40.0 104.5 96.0 329.4
08/05 03:10 10.3 82 7.85 7.4 11 11 1034.7 0 18.1 26.5 39.4 103.1 94.4 323.7
08/05 03:00 10.6 81 7.91 7.5 9 17 1034.7 0 18.2 26.5 39.5 103.4 94.8 325.4
08/05 02:50 10.9 80 7.96 7.6 13 13 1034.8 0 18.3 26.5 39.6 103.6 95.2 326.5
08/05 02:40 11.2 79 8.01 7.7 15 19 1034.8 0 18.4 26.5 39.7 103.7 95.5 327.7
08/05 02:30 11.3 79 8.06 7.8 13 22 1034.8 0 18.5 26.6 39.8 104.1 96.0 329.6
08/05 02:20 11.2 79 8.01 7.7 17 20 1034.7 0 18.4 26.5 39.7 103.7 95.5 327.6
08/05 02:10 10.9 81 8.06 7.8 17 20 1034.8 0 18.6 26.7 40.0 104.7 96.5 331.3
08/05 02:00 10.7 83 8.15 7.9 13 20 1034.8 0 18.8 26.9 40.5 106.0 98.0 336.5
08/05 01:50 10.8 83 8.21 8 11 17 1034.8 0 18.9 27.0 40.7 106.5 98.7 338.9
08/05 01:40 10.7 83 8.15 7.9 13 17 1034.7 0 18.8 26.9 40.5 105.9 98.0 336.5
08/05 01:30 10.7 84 8.25 8.1 13 19 1034.6 0 19.0 27.1 40.9 107.0 99.4 341.3
08/05 01:20 10.7 85 8.35 8.3 11 13 1034.6 0 19.2 27.2 41.3 108.2 100.8 346.1
08/05 01:10 10.7 85 8.35 8.3 15 19 1034.6 0 19.2 27.2 41.3 108.2 100.8 346.1
08/05 01:00 10.7 86 8.45 8.5 13 19 1034.6 0 19.4 27.4 41.7 109.3 102.2 351.0
08/05 00:50 10.7 87 8.55 8.6 13 15 1034.7 0 19.6 27.6 42.2 110.4 103.6 355.9
08/05 00:40 10.7 87 8.55 8.6 11 19 1034.6 0 19.6 27.6 42.2 110.4 103.5 355.8
08/05 00:30 10.6 87 8.49 8.5 11 17 1034.6 0 19.5 27.5 42.0 109.9 102.8 353.4
08/05 00:20 10.8 87 8.6 8.7 13 17 1034.6 0 19.7 27.6 42.3 110.9 104.1 357.8
08/05 00:10 10.8 87 8.6 8.7 11 11 1034.6 0 19.7 27.6 42.3 110.9 104.1 357.8
08/05 00:00 10.9 87 8.66 8.8 11 17 1034.7 0 19.8 27.7 42.5 111.4 104.8 360.3
07/05 23:50 10.9 87 8.66 8.8 11 11 1034.7 0 19.8 27.7 42.5 111.4 104.8 360.3
07/05 23:40 11.1 86 8.66 8.8 13 15 1034.8 0 19.8 27.6 42.4 111.1 104.6 359.4
07/05 23:30 11.2 86 8.72 8.9 15 19 1034.8 0 20.0 27.7 42.6 111.7 105.3 361.9
07/05 23:20 11.4 86 8.83 9.1 15 17 1034.8 0 20.2 27.8 43.0 112.6 106.5 366.3
07/05 23:10 11.4 86 8.83 9.1 11 17 1034.9 0 20.2 27.8 43.0 112.6 106.5 366.4
07/05 23:00 11.6 85 8.84 9.2 11 17 1034.9 0 20.2 27.8 42.9 112.5 106.4 365.9
07/05 22:50 11.5 85 8.78 9.1 9 15 1034.9 0 20.1 27.7 42.7 111.9 105.7 363.5
07/05 22:40 11.7 85 8.89 9.3 11 13 1035 0 20.3 27.8 43.1 112.9 107.0 367.9
07/05 22:30 11.9 84 8.9 9.3 11 17 1035.1 0 20.3 27.8 43.0 112.7 106.8 367.5
07/05 22:20 12 83 8.85 9.2 11 13 1035.2 0 20.2 27.7 42.8 112.0 106.0 364.6
07/05 22:10 12.2 83 8.96 9.4 11 13 1035.2 0 20.4 27.8 43.1 113.0 107.3 369.0
07/05 22:00 12.3 82 8.9 9.3 13 19 1035.1 0 20.3 27.7 42.8 112.1 106.3 365.6
07/05 21:50 12.5 82 9.02 9.5 15 19 1035.1 0 20.5 27.8 43.2 113.2 107.7 370.5
07/05 21:40 12.6 81 8.96 9.4 13 15 1035.1 0 20.4 27.7 42.9 112.4 106.7 367.1
07/05 21:30 12.9 80 9.02 9.5 13 19 1035 0 20.5 27.7 43.0 112.6 107.1 368.6
07/05 21:20 13.1 79 9.02 9.5 11 15 1035 0 20.5 27.6 42.9 112.3 106.8 367.6
07/05 21:10 13.5 77 9.01 9.6 15 19 1034.9 0 20.5 27.5 42.6 111.6 106.1 365.2
07/05 21:00 13.8 76 9.06 9.6 17 20 1034.8 0 20.5 27.5 42.7 111.8 106.4 366.2
07/05 20:50 14 76 9.17 9.8 13 20 1034.7 0 20.8 27.6 43.0 112.7 107.6 370.5
07/05 20:40 14.2 75 9.16 9.8 13 17 1034.6 0 20.7 27.5 42.8 112.3 107.2 369.0
07/05 20:30 14.3 75 9.21 9.9 15 22 1034.7 0 20.8 27.6 43.0 112.7 107.7 371.0
07/05 20:20 14.4 75 9.27 10 15 17 1034.7 0 21.0 27.6 43.2 113.2 108.4 373.3
07/05 20:10 14.5 75 9.33 10.1 15 19 1034.7 0 21.1 27.7 43.4 113.7 109.1 375.7
07/05 20:00 14.5 75 9.33 10.1 17 22 1034.6 0 21.1 27.7 43.4 113.7 109.1 375.7
07/05 19:50 14.3 76 9.34 10.1 13 17 1034.7 0 21.1 27.8 43.5 114.1 109.5 377.2
07/05 19:40 14.3 76 9.34 10.1 13 13 1034.7 0 21.1 27.8 43.5 114.1 109.5 377.2
07/05 19:30 14.2 76 9.28 10 13 17 1034.7 0 21.0 27.7 43.3 113.6 108.8 374.8
07/05 19:20 14.3 75 9.21 9.9 13 13 1034.7 0 20.8 27.6 43.0 112.7 107.7 371.0
07/05 19:10 14.1 76 9.22 9.9 11 13 1034.8 0 20.9 27.6 43.2 113.1 108.1 372.4
07/05 19:00 13.8 78 9.29 10 13 15 1034.8 0 21.0 27.9 43.6 114.3 109.5 377.2
07/05 18:50 14 76 9.17 9.8 11 13 1034.8 0 20.8 27.6 43.0 112.7 107.6 370.5
07/05 18:40 14.2 75 9.16 9.8 13 15 1034.7 0 20.7 27.5 42.8 112.3 107.2 369.0
07/05 18:30 14.3 74 9.09 9.7 15 20 1034.6 0 20.6 27.4 42.5 111.4 106.1 365.2
07/05 18:20 14.5 74 9.2 9.9 17 17 1034.6 0 20.8 27.5 42.8 112.3 107.3 369.5
07/05 18:10 14.5 74 9.2 9.9 19 20 1034.5 0 20.8 27.5 42.8 112.3 107.3 369.5
07/05 18:00 14.6 72 9.01 9.6 17 22 1034.4 0 20.4 27.1 42.0 110.0 104.6 360.0
07/05 17:50 14.7 73 9.19 9.9 15 19 1034.4 0 20.8 27.4 42.7 111.9 106.9 368.0
07/05 17:40 14.8 70 8.87 9.4 17 19 1034.3 0 20.1 26.8 41.3 108.2 102.4 352.5
07/05 17:30 14.8 69 8.74 9.2 17 22 1034.3 0 19.8 26.6 40.8 106.8 100.7 346.4
07/05 17:20 15 68 8.72 9.1 19 20 1034.2 0 19.8 26.5 40.6 106.3 100.2 344.6
07/05 17:10 15.1 67 8.64 9 19 22 1034.1 0 19.6 26.4 40.2 105.3 99.0 340.5
07/05 17:00 15.1 67 8.64 9 19 22 1034 0 19.6 26.4 40.2 105.3 99.0 340.4

Last Refresh: 08-May-2026 11:05:09

Bureau of Meteorology